Longfield, United Kingdom
Current Conditions -  °F | °C
As of 8:20 PM on Monday 22 Dec 2014 (Local Time) from EGLC Reporting Station
Scattered Clouds Scattered Clouds  
Wind Chill: 12°   Ceiling: Unl
Heat Index: 12°   Visibility: 6mi
Dew Point:   Wind: 17mph
Humidity: 72%   Direction: 250°WSW
Pressure: 30.06"   Gusts: 31mph
Location:  51.4°N, 0.3°E
Report Text: EGLC 222020Z 25015G27KT 9999 SCT026 12/07 Q1018
Loading
Personal Weather Stations






























Interactive Weather Map New forecast layout! Learn more

10-Day Weather Forecast

Advertisements
Track Severe Weather on mobile